KOUN/OUN METAR and TAF weather

Enter ICAO airport designator
Station Type Date Time Source
KOUN METAR 2020/06/01 16:47 UTC NOAA

KOUN 011647Z 17010KT 10SM CLR 26/18 A3016


Station Type Date Time Source
KOUN Decoded METAR 2020/06/01 16:47 UTC NOAA

Norman / Max Westheimer, OK, United States (KOUN) 35-13N 097-27W 357M
Jun 01, 2020 - 12:47 PM EDT / 2020.06.01 1647 UTC
Wind: from the S (170 degrees) at 12 MPH (10 KT):0
Visibility: 10 mile(s):0
Sky conditions: clear
Temperature: 78 F (26 C)
Dew Point: 64 F (18 C)
Relative Humidity: 61%
Pressure (altimeter): 30.16 in. Hg (1021 hPa)
ob: KOUN 011647Z 17010KT 10SM CLR 26/18 A3016
cycle: 17

Station Type Date Time Source
KOUN TAF 2020/06/01 18:22 UTC NOAA

TAF KOUN 011720Z 0118/0218 17011G15KT P6SM SCT035 BKN250
FM012300 16011KT P6SM BKN250

Example: see airport list